Nearby METAR Reports

KLWM - Lawrence,MA, USA
Distance from station: NE 12mi, 19km
Updated: Tue, 13-Nov-2018 11:54pm EST
Clear
Clear
 Wind from WNW
Wind: WNW 22 mph , 35 km/h, Gust: 37 mph , 59 km/h
Temperature: 39°F , 4°C
Wind Chill: 29°F , -2°C
Dew Point: 18°F , -8°C
Humidity: 42%
Barometer: 29.98 inHg , 1015.2 hPa
Clouds: Clear
Visibility: 10 miles , 16 km
2018/11/14 04:54 KLWM 140454Z AUTO 30019G32KT 10SM CLR 04/M08 A2998 RMK AO2 PK WND 31032/0453 SLP152 T00441078 401280044
KBED - Bedford,MA, USA
Distance from station: SSE 12mi, 19km
Updated: Tue, 13-Nov-2018 11:56pm EST
Overcast
Overcast
 Wind from WNW
Wind: WNW 18 mph , 30 km/h, Gust: 32 mph , 52 km/h
Temperature: 39°F , 4°C
Wind Chill: 30°F , -1°C
Dew Point: 21°F , -6°C
Humidity: 48%
Barometer: 29.98 inHg , 1015.2 hPa
Clouds: Overcast
Visibility: 10 miles , 16 km
Cloud details: Overcast 4900 ft
2018/11/14 04:56 KBED 140456Z AUTO 29016G28KT 10SM OVC049 04/M06 A2998 RMK AO2 PK WND 32035/0441 RAB0359E11 SLP166 P0000 T00391056 401220039

Metar display script from Saratoga-Weather.org